createdAt,value
2024-02-17T00:04:06.757Z,21.30
2024-02-17T00:12:15.663Z,24.85
2024-02-17T00:20:21.737Z,23.23
2024-02-17T00:28:30.176Z,24.33
2024-02-17T00:36:36.057Z,28.23
2024-02-17T00:44:44.660Z,28.95
2024-02-17T00:52:50.884Z,23.98
2024-02-17T01:00:59.298Z,23.38
2024-02-17T01:09:05.332Z,19.50
2024-02-17T01:17:13.844Z,16.38
2024-02-17T01:25:19.612Z,15.82
2024-02-17T01:33:30.950Z,16.48
2024-02-17T01:41:36.734Z,14.35
2024-02-17T01:49:45.103Z,15.63
2024-02-17T01:57:52.310Z,14.55
2024-02-17T02:06:00.942Z,14.82
2024-02-17T02:14:19.810Z,15.93
2024-02-17T02:22:28.334Z,15.25
2024-02-17T02:30:38.146Z,13.95
2024-02-17T02:38:44.070Z,14.10
2024-02-17T02:46:52.504Z,13.75
2024-02-17T02:54:58.260Z,14.77
2024-02-17T03:03:06.968Z,13.70
2024-02-17T03:11:17.051Z,14.38
2024-02-17T03:19:25.527Z,14.13
2024-02-17T03:27:31.666Z,14.73
2024-02-17T03:35:42.786Z,14.00
2024-02-17T03:43:48.530Z,14.70
2024-02-17T03:51:57.040Z,14.65
2024-02-17T04:00:04.585Z,12.88
2024-02-17T04:08:20.849Z,13.45
2024-02-17T04:16:26.874Z,14.07
2024-02-17T04:24:35.314Z,15.93
2024-02-17T04:32:41.304Z,14.57
2024-02-17T04:40:49.629Z,13.43
2024-02-17T04:48:55.497Z,13.75
2024-02-17T04:57:03.824Z,13.35
2024-02-17T05:05:10.083Z,13.45
2024-02-17T05:13:19.021Z,14.65
2024-02-17T05:21:24.777Z,13.93
2024-02-17T05:29:33.722Z,14.63
2024-02-17T05:37:39.572Z,15.77
2024-02-17T05:45:48.982Z,12.13
2024-02-17T05:53:54.830Z,13.05
2024-02-17T06:02:03.129Z,13.50
2024-02-17T06:10:10.587Z,13.23
2024-02-17T06:18:31.463Z,19.50
2024-02-17T06:26:37.532Z,22.27
2024-02-17T06:34:48.156Z,20.70
2024-02-17T06:42:53.955Z,16.77
2024-02-17T06:51:03.471Z,17.02
2024-02-17T06:59:09.186Z,16.58
2024-02-17T07:07:17.615Z,17.60
2024-02-17T07:15:23.564Z,19.75
2024-02-17T07:23:32.213Z,15.18
2024-02-17T07:31:43.420Z,14.90
2024-02-17T07:39:52.088Z,16.42
2024-02-17T07:47:57.961Z,17.77
2024-02-17T07:56:06.393Z,14.45
2024-02-17T08:04:12.105Z,13.32
2024-02-17T08:12:20.689Z,13.57
2024-02-17T08:20:26.470Z,13.85
2024-02-17T08:28:35.030Z,30.63
2024-02-17T08:36:42.781Z,24.60
2024-02-17T08:44:55.047Z,12.45
2024-02-17T08:53:00.721Z,13.70
2024-02-17T09:01:09.849Z,13.68
2024-02-17T09:09:15.759Z,13.43
2024-02-17T09:17:24.137Z,13.48
2024-02-17T09:25:29.820Z,17.33
2024-02-17T09:33:38.770Z,13.00
2024-02-17T09:41:44.928Z,12.45
2024-02-17T09:49:53.777Z,21.13
2024-02-17T09:57:59.735Z,14.40
2024-02-17T10:06:17.924Z,10.23
2024-02-17T10:14:28.595Z,11.77
2024-02-17T10:22:37.131Z,11.30
2024-02-17T10:30:43.618Z,14.85
2024-02-17T10:38:52.299Z,9.70
2024-02-17T10:46:59.625Z,9.60
2024-02-17T10:55:13.189Z,9.10
2024-02-17T11:03:23.029Z,9.98
2024-02-17T11:11:34.322Z,9.75
2024-02-17T11:19:43.759Z,9.98
2024-02-17T11:27:52.988Z,7.72
2024-02-17T11:36:02.769Z,7.75
2024-02-17T11:44:12.080Z,8.23
2024-02-17T11:52:18.032Z,7.43
2024-02-17T12:00:26.670Z,6.85
2024-02-17T12:08:32.932Z,6.85
2024-02-17T12:16:42.097Z,7.60
2024-02-17T12:24:48.447Z,6.68
2024-02-17T12:33:10.634Z,6.22
2024-02-17T12:41:20.063Z,6.45
2024-02-17T12:49:29.824Z,6.18
2024-02-17T12:57:36.011Z,7.25
2024-02-17T13:05:46.554Z,6.85
2024-02-17T13:13:52.559Z,8.07
2024-02-17T13:22:01.457Z,7.85
2024-02-17T13:30:08.106Z,8.02
2024-02-17T13:38:25.017Z,8.35
2024-02-17T13:46:35.751Z,7.95
2024-02-17T13:54:44.245Z,8.93
2024-02-17T14:02:50.031Z,8.10
2024-02-17T14:10:58.472Z,8.43
2024-02-17T14:19:04.489Z,8.10
2024-02-17T14:27:13.603Z,8.27
2024-02-17T14:35:19.396Z,9.02
2024-02-17T14:43:27.716Z,7.88
2024-02-17T14:51:33.659Z,7.88
2024-02-17T14:59:42.556Z,8.48
2024-02-17T15:07:48.368Z,8.45
2024-02-17T15:15:57.253Z,8.48
2024-02-17T15:24:02.951Z,8.43
2024-02-17T15:32:11.537Z,9.00
2024-02-17T15:40:17.670Z,9.10
2024-02-17T15:48:28.292Z,8.52
2024-02-17T15:56:33.998Z,10.45
2024-02-17T16:04:42.486Z,11.77
2024-02-17T16:12:49.888Z,13.07
2024-02-17T16:21:01.296Z,12.27
2024-02-17T16:29:09.529Z,23.55
2024-02-17T16:37:18.969Z,20.98
2024-02-17T16:45:26.249Z,23.60
2024-02-17T16:53:34.612Z,23.10
2024-02-17T17:01:40.442Z,23.17
2024-02-17T17:09:48.778Z,25.83
2024-02-17T17:17:54.996Z,21.92
2024-02-17T17:26:03.450Z,17.30
2024-02-17T17:34:09.360Z,16.60
2024-02-17T17:42:17.917Z,17.10
2024-02-17T17:50:25.840Z,17.33
2024-02-17T17:58:36.208Z,17.58
2024-02-17T18:06:42.710Z,20.48
2024-02-17T18:14:51.213Z,19.70
2024-02-17T18:22:57.787Z,21.55
2024-02-17T18:31:06.375Z,23.60
2024-02-17T18:39:12.298Z,31.80
2024-02-17T18:47:20.674Z,35.72
2024-02-17T18:55:28.789Z,33.33
2024-02-17T19:03:37.188Z,31.70
2024-02-17T19:11:43.560Z,28.75
2024-02-17T19:19:51.967Z,32.38
2024-02-17T19:27:57.860Z,28.85
2024-02-17T19:36:06.766Z,21.30
2024-02-17T19:44:12.509Z,33.33
2024-02-17T19:52:20.971Z,26.13
2024-02-17T20:00:26.807Z,28.90
2024-02-17T20:08:35.212Z,26.20
2024-02-17T20:16:42.012Z,27.17
2024-02-17T20:24:51.011Z,25.38
2024-02-17T20:32:56.823Z,25.23
2024-02-17T20:41:05.143Z,30.95
2024-02-17T20:49:10.952Z,40.53
2024-02-17T20:57:19.460Z,41.17
2024-02-17T21:05:25.339Z,37.60
2024-02-17T21:13:33.740Z,43.30
2024-02-17T21:21:39.640Z,43.40
2024-02-17T21:29:49.342Z,44.47
2024-02-17T21:37:55.242Z,42.45
2024-02-17T21:46:04.039Z,41.85
2024-02-17T21:54:10.734Z,40.78
2024-02-17T22:02:19.053Z,46.58
2024-02-17T22:10:24.705Z,41.63
2024-02-17T22:18:33.245Z,40.72
2024-02-17T22:26:41.448Z,39.33
2024-02-17T22:34:49.918Z,37.85
2024-02-17T22:42:55.895Z,38.17
2024-02-17T22:51:04.286Z,32.20
2024-02-17T22:59:15.291Z,27.55
2024-02-17T23:07:23.977Z,30.42
2024-02-17T23:15:30.176Z,32.05
2024-02-17T23:23:38.391Z,30.35
2024-02-17T23:31:45.571Z,29.83
2024-02-17T23:39:53.999Z,28.73
2024-02-17T23:47:59.961Z,29.55
2024-02-17T23:56:12.077Z,37.50
